Time;durP1;ratioP1;P1;durP2;ratioP2;P2;SDS_P1;SDS_P2;PMS_P1;PMS_P2;Temp;Humidity;BMP_temperature;BMP_pressure;BME280_temperature;BME280_humidity;BME280_pressure;Samples;Min_cycle;Max_cycle;Signal;HPM_P1;HPM_P2
2023/02/09 00:01:37;;;;;;;62.20;24.40;;;;;;;-6.30;66.36;102715.61;131417;1253;107243;-73
2023/02/09 00:04:43;;;;;;;62.30;24.20;;;;;;;-6.35;65.95;102709.16;131372;1253;107535;-74
2023/02/09 00:07:49;;;;;;;71.00;26.90;;;;;;;-6.38;66.22;102700.12;131283;1248;106611;-74
2023/02/09 00:10:54;;;;;;;146.00;40.50;;;;;;;-6.41;66.29;102695.40;131398;1253;107458;-74
2023/02/09 00:14:00;;;;;;;129.70;37.20;;;;;;;-6.45;66.32;102694.34;131284;1252;107572;-73
2023/02/09 00:17:07;;;;;;;115.00;33.90;;;;;;;-6.48;66.13;102690.67;131221;1254;107436;-74
2023/02/09 00:20:13;;;;;;;95.50;31.00;;;;;;;-6.53;65.74;102684.04;131301;1248;107646;-73
2023/02/09 00:23:19;;;;;;;81.70;29.20;;;;;;;-6.57;66.16;102681.73;131465;1247;108084;-75
2023/02/09 00:26:25;;;;;;;67.60;25.60;;;;;;;-6.59;65.90;102681.20;131332;1247;107617;-75
2023/02/09 00:29:31;;;;;;;66.90;24.70;;;;;;;-6.60;66.03;102680.14;131378;1253;107347;-74
2023/02/09 00:32:36;;;;;;;64.30;24.50;;;;;;;-6.63;66.23;102673.37;131279;1254;107529;-74
2023/02/09 00:35:43;;;;;;;60.80;23.20;;;;;;;-6.66;65.99;102674.20;131020;1253;107510;-73
2023/02/09 00:38:49;;;;;;;54.40;21.70;;;;;;;-6.68;65.73;102669.85;131138;1247;107572;-74
2023/02/09 00:42:07;;;;;;;59.40;21.70;;;;;;;-6.78;65.86;102665.42;131228;1253;107468;-76
2023/02/09 00:45:12;;;;;;;58.20;22.00;;;;;;;-6.84;65.84;102658.77;131228;1254;107516;-76
2023/02/09 00:48:18;;;;;;;64.10;23.00;;;;;;;-6.81;65.81;102660.19;131061;1253;107484;-75
2023/02/09 00:51:24;;;;;;;53.20;21.40;;;;;;;-6.75;65.82;102660.77;131333;1253;107239;-72
2023/02/09 00:54:29;;;;;;;58.40;21.30;;;;;;;-6.66;65.81;102667.61;131190;1248;107526;-73
2023/02/09 00:57:35;;;;;;;60.40;22.20;;;;;;;-6.53;65.88;102670.02;131260;1253;107615;-73
2023/02/09 01:00:42;;;;;;;59.50;21.80;;;;;;;-6.37;65.74;102663.59;131293;1253;107960;-76
2023/02/09 01:03:47;;;;;;;55.90;21.30;;;;;;;-6.37;65.21;102651.30;131189;1247;107357;-73
2023/02/09 01:06:53;;;;;;;59.50;21.40;;;;;;;-6.40;65.01;102647.11;131328;1248;107713;-74
2023/02/09 01:09:59;;;;;;;59.70;22.50;;;;;;;-6.43;65.40;102638.92;131388;1249;107888;-73
2023/02/09 01:13:06;;;;;;;76.70;27.90;;;;;;;-6.47;65.40;102635.95;131286;1254;107480;-76
2023/02/09 01:16:14;;;;;;;82.60;27.70;;;;;;;-6.51;65.29;102634.53;131269;1262;107612;-72
2023/02/09 01:19:20;;;;;;;113.70;36.70;;;;;;;-6.57;65.24;102630.84;131231;1252;107551;-74
2023/02/09 01:22:26;;;;;;;361.60;97.10;;;;;;;-6.72;64.82;102634.86;131426;1253;107640;-75
2023/02/09 01:25:32;;;;;;;165.30;50.50;;;;;;;-6.85;64.78;102632.98;131400;1248;107526;-73
2023/02/09 01:28:38;;;;;;;110.30;37.10;;;;;;;-6.92;64.96;102627.55;131394;1254;107381;-73
2023/02/09 01:31:44;;;;;;;107.60;36.00;;;;;;;-7.00;64.91;102630.75;131339;1253;107512;-75
2023/02/09 01:34:53;;;;;;;82.80;31.10;;;;;;;-7.09;64.87;102626.14;131116;1255;107551;-73
2023/02/09 01:37:58;;;;;;;110.30;36.60;;;;;;;-7.13;64.93;102626.44;131419;1253;107538;-74
2023/02/09 01:41:04;;;;;;;103.40;33.00;;;;;;;-7.20;65.15;102623.59;131384;1253;107616;-72
2023/02/09 01:44:41;;;;;;;85.60;30.80;;;;;;;-7.24;65.25;102614.88;131404;1254;109272;-74
2023/02/09 01:47:50;;;;;;;105.90;35.40;;;;;;;-7.34;64.76;102608.03;131397;1253;107481;-73
2023/02/09 01:51:00;;;;;;;63.00;24.50;;;;;;;-7.48;64.64;102599.73;131440;1263;108658;-76
2023/02/09 01:54:12;;;;;;;56.10;21.80;;;;;;;-7.52;64.80;102596.22;131419;1253;107457;-72
2023/02/09 01:57:22;;;;;;;70.00;25.10;;;;;;;-7.49;65.23;102600.41;131213;1253;107608;-73
2023/02/09 02:00:29;;;;;;;76.80;28.40;;;;;;;-7.42;64.96;102597.72;131068;1253;107475;-74
2023/02/09 02:03:35;;;;;;;69.70;25.30;;;;;;;-7.34;65.15;102594.54;131473;1261;107579;-74
2023/02/09 02:06:41;;;;;;;77.50;28.70;;;;;;;-7.26;65.24;102591.86;131437;1253;106649;-74
2023/02/09 02:09:47;;;;;;;104.00;35.90;;;;;;;-7.21;64.94;102586.05;131214;1252;105950;-75
2023/02/09 02:12:55;;;;;;;101.10;34.30;;;;;;;-7.18;64.99;102588.16;131291;1247;107498;-73
2023/02/09 02:16:09;;;;;;;86.30;30.60;;;;;;;-7.15;64.61;102586.82;131481;1255;107536;-73
2023/02/09 02:19:41;;;;;;;83.70;29.40;;;;;;;-7.14;64.52;102579.90;131427;1253;107499;-73
2023/02/09 02:22:59;;;;;;;89.60;32.80;;;;;;;-7.18;64.89;102576.58;131335;1248;108376;-73
2023/02/09 02:26:51;;;;;;;104.20;37.00;;;;;;;-7.22;64.44;102572.72;131410;1253;107985;-73
2023/02/09 02:30:25;;;;;;;95.40;34.60;;;;;;;-7.28;64.65;102570.05;130924;1248;107519;-75
2023/02/09 02:33:38;;;;;;;80.70;30.60;;;;;;;-7.33;64.64;102569.30;131226;1264;107347;-74
2023/02/09 02:36:54;;;;;;;98.00;36.10;;;;;;;-7.40;64.73;102566.98;131211;1249;108687;-73
2023/02/09 02:40:10;;;;;;;116.20;41.30;;;;;;;-7.48;64.86;102554.25;131348;1252;107441;-73
2023/02/09 02:43:25;;;;;;;101.00;39.00;;;;;;;-7.54;64.74;102547.80;131286;1253;107444;-73
2023/02/09 02:46:38;;;;;;;119.30;41.90;;;;;;;-7.63;64.62;102537.51;131234;1253;108615;-73
2023/02/09 02:49:51;;;;;;;143.30;47.60;;;;;;;-7.69;64.83;102528.95;131229;1247;107663;-74
2023/02/09 02:53:01;;;;;;;78.50;29.10;;;;;;;-7.72;65.19;102526.84;131366;1253;107496;-74
2023/02/09 02:56:12;;;;;;;60.20;24.30;;;;;;;-7.72;65.02;102532.02;131193;1254;107563;-74
2023/02/09 02:59:23;;;;;;;63.60;24.70;;;;;;;-7.72;65.55;102532.71;131161;1254;108714;-75
2023/02/09 03:02:33;;;;;;;62.40;24.00;;;;;;;-7.66;65.53;102526.55;131206;1252;107233;-74
2023/02/09 03:05:40;;;;;;;51.90;21.90;;;;;;;-7.56;65.46;102520.98;131368;1253;106220;-74
2023/02/09 03:08:51;;;;;;;54.50;21.70;;;;;;;-7.47;65.16;102518.49;131500;1253;108543;-73
2023/02/09 03:12:05;;;;;;;83.10;31.40;;;;;;;-7.33;65.29;102513.28;131274;1262;107526;-74
2023/02/09 03:15:17;;;;;;;66.50;25.00;;;;;;;-7.26;65.23;102509.20;131247;1248;107415;-74
2023/02/09 03:18:31;;;;;;;61.80;23.30;;;;;;;-7.22;65.08;102506.83;131235;1253;108733;-74
2023/02/09 03:21:45;;;;;;;63.60;26.10;;;;;;;-7.20;64.88;102492.15;131128;1250;107516;-72
2023/02/09 03:24:57;;;;;;;62.20;25.10;;;;;;;-7.16;64.57;102492.02;131074;1252;107525;-74
2023/02/09 03:28:06;;;;;;;64.90;26.10;;;;;;;-7.19;65.04;102488.17;131018;1255;107540;-74
2023/02/09 03:31:13;;;;;;;59.70;23.90;;;;;;;-7.21;64.95;102484.36;131334;1253;107611;-74
2023/02/09 03:34:19;;;;;;;63.10;24.50;;;;;;;-7.25;65.47;102484.33;131145;1250;107259;-73
2023/02/09 03:37:25;;;;;;;62.80;24.70;;;;;;;-7.31;65.75;102482.70;131142;1254;108655;-74
2023/02/09 03:40:31;;;;;;;76.40;28.10;;;;;;;-7.33;65.84;102479.92;131322;1249;107351;-73
2023/02/09 03:47:01;;;;;;;74.20;28.00;;;;;;;-7.33;65.81;102468.00;131294;1253;107490;-74
2023/02/09 03:50:08;;;;;;;64.00;24.80;;;;;;;-7.32;66.14;102459.52;131228;1254;105886;-75
2023/02/09 03:53:14;;;;;;;60.80;25.00;;;;;;;-7.32;66.32;102459.70;131186;1252;107680;-73
2023/02/09 03:56:23;;;;;;;59.70;24.60;;;;;;;-7.34;66.44;102455.88;131122;1252;107472;-71
2023/02/09 03:59:29;;;;;;;56.70;23.40;;;;;;;-7.36;67.39;102449.80;131071;1255;107345;-72
2023/02/09 04:02:35;;;;;;;53.40;21.80;;;;;;;-7.34;67.83;102446.20;131172;1249;106984;-71
2023/02/09 04:05:41;;;;;;;117.80;33.10;;;;;;;-7.28;67.99;102440.88;131184;1249;106828;-71
2023/02/09 04:08:46;;;;;;;61.10;22.70;;;;;;;-7.22;67.61;102438.19;131392;1252;107044;-71
2023/02/09 04:11:52;;;;;;;67.60;23.80;;;;;;;-7.14;68.01;102433.94;131414;1247;107537;-71
2023/02/09 04:14:58;;;;;;;142.90;36.50;;;;;;;-7.01;67.87;102431.09;131338;1253;105346;-71
2023/02/09 04:18:04;;;;;;;107.00;33.40;;;;;;;-6.87;67.62;102425.48;131401;1248;108013;-73
2023/02/09 04:21:09;;;;;;;161.90;38.60;;;;;;;-6.72;67.71;102425.41;131301;1270;107209;-72
2023/02/09 04:24:15;;;;;;;89.60;28.80;;;;;;;-6.58;67.82;102425.67;131494;1267;107534;-72
2023/02/09 04:27:20;;;;;;;58.40;24.20;;;;;;;-6.49;68.11;102426.79;131256;1253;107482;-71
2023/02/09 04:30:26;;;;;;;57.90;23.60;;;;;;;-6.43;67.97;102425.44;131227;1247;108723;-73
2023/02/09 04:33:31;;;;;;;62.80;25.40;;;;;;;-6.38;68.35;102429.09;131221;1247;107394;-71
2023/02/09 04:36:37;;;;;;;64.00;26.40;;;;;;;-6.34;68.37;102431.53;131247;1249;107505;-74
2023/02/09 04:39:42;;;;;;;59.40;25.60;;;;;;;-6.32;68.37;102439.85;131281;1253;108689;-74
2023/02/09 04:42:48;;;;;;;61.20;25.50;;;;;;;-6.33;68.12;102431.36;131291;1252;108276;-72
2023/02/09 04:45:54;;;;;;;64.70;26.30;;;;;;;-6.34;68.34;102428.42;131274;1253;107369;-72
2023/02/09 04:48:59;;;;;;;61.20;26.30;;;;;;;-6.37;68.49;102432.05;131305;1247;107256;-71
2023/02/09 04:52:05;;;;;;;61.90;25.50;;;;;;;-6.38;68.24;102431.34;131205;1248;107679;-71
2023/02/09 04:55:11;;;;;;;67.80;26.70;;;;;;;-6.42;68.52;102430.96;131247;1254;107275;-72
2023/02/09 05:01:42;;;;;;;80.40;29.00;;;;;;;-6.46;68.84;102432.34;131302;1248;108518;-73
2023/02/09 05:04:47;;;;;;;76.20;29.10;;;;;;;-6.47;68.63;102428.52;131434;1248;107435;-71
2023/02/09 05:07:53;;;;;;;72.40;30.50;;;;;;;-6.47;68.90;102425.23;131490;1253;107431;-74
2023/02/09 05:10:59;;;;;;;72.80;29.50;;;;;;;-6.47;68.79;102429.21;131477;1253;107502;-71
2023/02/09 05:14:04;;;;;;;98.60;34.40;;;;;;;-6.46;68.64;102429.73;131303;1248;107559;-73
2023/02/09 05:17:10;;;;;;;94.60;34.10;;;;;;;-6.45;68.42;102424.71;131414;1250;107248;-73
2023/02/09 05:20:16;;;;;;;121.00;45.30;;;;;;;-6.46;68.44;102420.21;131420;1253;109115;-72
2023/02/09 05:23:21;;;;;;;98.90;39.20;;;;;;;-6.49;68.26;102420.55;131436;1251;106298;-72
2023/02/09 05:26:27;;;;;;;107.30;40.60;;;;;;;-6.52;68.76;102424.34;131327;1253;106650;-73
2023/02/09 05:29:32;;;;;;;87.80;36.40;;;;;;;-6.52;68.66;102432.13;131221;1253;107554;-71
2023/02/09 05:32:38;;;;;;;96.70;38.60;;;;;;;-6.55;68.88;102432.98;131351;1253;107476;-71
2023/02/09 05:35:43;;;;;;;100.50;39.70;;;;;;;-6.57;68.72;102430.02;131222;1253;107518;-74
2023/02/09 05:38:49;;;;;;;96.50;40.60;;;;;;;-6.61;68.70;102420.81;131127;1253;107478;-73
2023/02/09 05:45:18;;;;;;;102.40;41.70;;;;;;;-6.67;68.97;102411.09;131182;1253;107494;-72
2023/02/09 05:48:23;;;;;;;72.60;30.40;;;;;;;-6.71;69.04;102405.17;131398;1249;106804;-71
2023/02/09 05:51:29;;;;;;;72.60;29.30;;;;;;;-6.76;68.89;102398.39;131140;1253;107558;-71
2023/02/09 05:54:34;;;;;;;77.80;31.40;;;;;;;-6.74;69.00;102399.45;131296;1254;107370;-71
2023/02/09 05:57:40;;;;;;;56.60;23.70;;;;;;;-6.66;68.97;102401.56;131144;1255;107495;-71
2023/02/09 06:00:45;;;;;;;59.60;24.30;;;;;;;-6.57;68.86;102401.45;131178;1250;107357;-72
2023/02/09 06:03:51;;;;;;;63.60;26.80;;;;;;;-6.46;68.70;102398.23;131159;1253;107248;-71
2023/02/09 06:06:57;;;;;;;71.70;28.20;;;;;;;-6.37;68.66;102397.94;131109;1254;105460;-73
2023/02/09 06:10:03;;;;;;;71.20;27.60;;;;;;;-6.27;68.56;102394.86;131192;1260;108649;-73
2023/02/09 06:13:08;;;;;;;75.00;27.00;;;;;;;-6.21;68.53;102393.32;131243;1249;108673;-71
2023/02/09 06:16:14;;;;;;;73.00;29.90;;;;;;;-6.18;68.41;102391.42;131343;1252;106743;-72
2023/02/09 06:19:21;;;;;;;69.40;29.40;;;;;;;-6.16;68.65;102391.44;131204;1254;107547;-72
2023/02/09 06:22:28;;;;;;;66.20;28.10;;;;;;;-6.20;68.26;102394.02;131216;1250;107611;-73
2023/02/09 06:25:33;;;;;;;65.80;28.30;;;;;;;-6.23;68.33;102398.86;131065;1250;107479;-73
2023/02/09 06:28:39;;;;;;;78.60;33.50;;;;;;;-6.29;68.49;102397.44;131293;1253;107495;-71
2023/02/09 06:31:45;;;;;;;87.50;34.50;;;;;;;-6.33;68.21;102402.28;131093;1251;106525;-71
2023/02/09 06:34:50;;;;;;;94.60;38.90;;;;;;;-6.34;68.64;102400.88;131289;1260;107335;-72
2023/02/09 06:37:59;;;;;;;89.30;36.30;;;;;;;-6.37;68.40;102403.13;131200;1252;107403;-73
2023/02/09 06:41:05;;;;;;;88.50;33.80;;;;;;;-6.37;68.54;102404.67;131199;1253;107276;-72
2023/02/09 06:44:11;;;;;;;80.10;31.80;;;;;;;-6.36;68.63;102401.39;131409;1253;107566;-72
2023/02/09 06:47:17;;;;;;;76.10;29.60;;;;;;;-6.34;68.56;102399.67;131442;1253;107752;-70
2023/02/09 06:50:23;;;;;;;73.10;30.00;;;;;;;-6.31;68.92;102397.26;131274;1247;107191;-71
2023/02/09 06:53:28;;;;;;;68.90;29.20;;;;;;;-6.32;69.09;102397.44;131256;1247;107250;-72
2023/02/09 06:56:34;;;;;;;66.50;27.90;;;;;;;-6.31;69.26;102401.24;131210;1248;107435;-74
2023/02/09 06:59:39;;;;;;;66.30;26.70;;;;;;;-6.28;69.10;102393.63;131094;1251;106609;-72
2023/02/09 07:02:45;;;;;;;72.60;28.40;;;;;;;-6.27;69.16;102388.61;131035;1255;107509;-71
2023/02/09 07:05:51;;;;;;;65.70;28.00;;;;;;;-6.24;69.04;102390.20;131128;1255;107685;-73
2023/02/09 07:08:56;;;;;;;71.30;28.30;;;;;;;-6.22;69.49;102385.70;131139;1253;107550;-73
2023/02/09 07:12:02;;;;;;;68.00;27.50;;;;;;;-6.18;69.66;102385.54;131117;1255;107540;-73
2023/02/09 07:15:09;;;;;;;71.10;29.20;;;;;;;-6.14;69.74;102377.92;131022;1255;107337;-67
2023/02/09 07:18:15;;;;;;;70.60;29.60;;;;;;;-6.09;70.03;102374.14;131154;1254;107523;-71
2023/02/09 07:21:21;;;;;;;69.80;29.00;;;;;;;-6.07;69.81;102372.23;131030;1253;107507;-75
2023/02/09 07:24:27;;;;;;;74.20;28.80;;;;;;;-6.01;70.18;102375.03;131087;1250;108502;-72
2023/02/09 07:27:32;;;;;;;72.90;30.00;;;;;;;-5.94;70.24;102375.20;131229;1254;105795;-74
2023/02/09 07:30:40;;;;;;;73.40;30.70;;;;;;;-5.87;70.39;102381.11;130934;1255;105974;-73
2023/02/09 07:33:46;;;;;;;70.40;30.40;;;;;;;-5.82;70.40;102383.02;131339;1249;107230;-72
2023/02/09 07:36:52;;;;;;;66.20;28.40;;;;;;;-5.75;70.25;102380.77;131033;1254;107098;-73
2023/02/09 07:39:57;;;;;;;68.80;29.30;;;;;;;-5.70;70.34;102378.54;131256;1248;107388;-72
2023/02/09 07:43:03;;;;;;;70.60;28.80;;;;;;;-5.64;70.31;102377.69;131218;1252;107535;-74
2023/02/09 07:46:09;;;;;;;70.10;29.40;;;;;;;-5.56;70.52;102379.42;131292;1252;107457;-72
2023/02/09 07:49:15;;;;;;;71.10;30.50;;;;;;;-5.51;70.46;102378.23;131248;1249;107544;-72
2023/02/09 07:52:21;;;;;;;66.50;29.30;;;;;;;-5.43;70.77;102381.52;131078;1255;107425;-72
2023/02/09 07:55:26;;;;;;;84.40;33.70;;;;;;;-5.36;70.52;102380.67;131066;1254;107439;-74
2023/02/09 07:58:32;;;;;;;71.30;29.80;;;;;;;-5.28;70.86;102374.44;131180;1255;107434;-73
2023/02/09 08:01:38;;;;;;;69.40;29.60;;;;;;;-5.18;70.99;102368.17;131266;1255;107514;-72
2023/02/09 08:04:43;;;;;;;80.30;30.90;;;;;;;-5.01;70.96;102366.59;131308;1252;107317;-73
2023/02/09 08:07:49;;;;;;;69.40;29.80;;;;;;;-4.82;70.98;102367.45;131152;1255;107564;-73
2023/02/09 08:10:57;;;;;;;67.60;28.50;;;;;;;-4.64;71.11;102366.36;131221;1253;107533;-73
2023/02/09 08:14:09;;;;;;;80.80;33.40;;;;;;;-4.50;70.71;102361.63;131129;1253;107429;-73
2023/02/09 08:17:24;;;;;;;72.20;31.60;;;;;;;-4.39;70.91;102355.69;131352;1254;106478;-72
2023/02/09 08:20:32;;;;;;;69.20;30.80;;;;;;;-4.28;70.92;102353.39;131378;1253;107495;-73
2023/02/09 08:23:40;;;;;;;68.30;31.40;;;;;;;-4.22;70.88;102349.38;131254;1252;107642;-74
2023/02/09 08:26:46;;;;;;;70.70;30.50;;;;;;;-4.15;70.88;102350.20;131320;1251;107496;-72
2023/02/09 08:29:51;;;;;;;122.10;50.60;;;;;;;-4.08;71.18;102349.64;131291;1264;107618;-71
2023/02/09 08:32:57;;;;;;;121.20;53.80;;;;;;;-4.01;71.07;102343.52;131372;1253;106496;-71
2023/02/09 08:36:03;;;;;;;84.50;38.50;;;;;;;-3.94;70.98;102341.40;131358;1253;107226;-73
2023/02/09 08:39:08;;;;;;;73.80;35.00;;;;;;;-3.86;71.23;102338.39;131376;1251;107568;-73
2023/02/09 08:42:14;;;;;;;72.30;34.10;;;;;;;-3.81;71.17;102338.18;131306;1253;107878;-72
2023/02/09 08:45:20;;;;;;;76.40;36.70;;;;;;;-3.73;71.21;102328.04;131236;1261;107481;-72
2023/02/09 08:48:25;;;;;;;66.10;31.70;;;;;;;-3.65;71.28;102322.93;131218;1262;107238;-73
2023/02/09 08:51:31;;;;;;;64.80;31.10;;;;;;;-3.60;71.29;102316.13;131294;1253;107539;-73
2023/02/09 08:54:37;;;;;;;59.20;30.40;;;;;;;-3.55;71.07;102316.61;131289;1253;106107;-74
2023/02/09 08:57:42;;;;;;;78.80;40.10;;;;;;;-3.49;71.43;102307.86;131186;1252;106469;-73
2023/02/09 09:00:48;;;;;;;72.40;35.40;;;;;;;-3.41;71.46;102313.19;131223;1253;107434;-72
2023/02/09 09:03:54;;;;;;;76.70;34.80;;;;;;;-3.32;71.21;102312.59;131332;1263;107298;-72
2023/02/09 09:07:00;;;;;;;71.10;32.80;;;;;;;-3.25;71.12;102317.39;131192;1253;107392;-72
2023/02/09 09:10:07;;;;;;;65.50;30.90;;;;;;;-3.17;71.12;102315.06;131317;1248;107581;-75
2023/02/09 09:13:13;;;;;;;71.30;32.40;;;;;;;-3.09;71.19;102312.72;131225;1253;107360;-72
2023/02/09 09:16:21;;;;;;;66.60;32.20;;;;;;;-3.02;71.15;102311.94;131227;1252;105941;-73
2023/02/09 09:19:28;;;;;;;60.00;29.90;;;;;;;-2.93;71.45;102312.40;131224;1253;106860;-72
2023/02/09 09:22:33;;;;;;;59.40;28.50;;;;;;;-2.84;71.49;102308.98;131439;1253;107594;-74
2023/02/09 09:25:41;;;;;;;66.40;29.90;;;;;;;-2.73;71.60;102307.82;131248;1262;106699;-73
2023/02/09 09:28:50;;;;;;;68.00;32.40;;;;;;;-2.63;71.56;102300.21;131110;1252;107829;-72
2023/02/09 09:31:56;;;;;;;66.30;29.60;;;;;;;-2.49;71.54;102298.64;131224;1253;107441;-72
2023/02/09 09:35:02;;;;;;;58.90;27.50;;;;;;;-2.31;71.25;102296.67;131277;1262;107219;-73
2023/02/09 09:38:07;;;;;;;55.90;25.20;;;;;;;-2.10;71.23;102291.33;131336;1253;107510;-72
2023/02/09 09:41:26;;;;;;;53.30;25.10;;;;;;;-1.92;71.16;102286.70;131194;1248;107412;-72
2023/02/09 09:44:38;;;;;;;50.70;25.00;;;;;;;-1.75;71.31;102281.92;131250;1247;107444;-73
2023/02/09 09:47:44;;;;;;;52.90;26.50;;;;;;;-1.61;70.95;102275.94;131249;1248;108591;-73
2023/02/09 09:50:54;;;;;;;49.30;25.10;;;;;;;-1.51;70.97;102274.37;131226;1252;107763;-75
2023/02/09 09:54:02;;;;;;;49.70;25.20;;;;;;;-1.41;70.92;102268.45;131302;1248;107528;-73
2023/02/09 09:57:19;;;;;;;52.70;25.80;;;;;;;-1.34;70.87;102273.38;131349;1253;107425;-73
2023/02/09 10:00:27;;;;;;;51.80;26.70;;;;;;;-1.26;70.79;102269.56;131324;1263;107391;-72
2023/02/09 10:03:33;;;;;;;54.90;27.00;;;;;;;-1.19;70.59;102261.93;131207;1247;107465;-68
2023/02/09 10:06:42;;;;;;;52.20;25.70;;;;;;;-1.12;70.59;102261.81;131266;1252;107233;-72
2023/02/09 10:09:52;;;;;;;52.20;25.50;;;;;;;-1.05;70.48;102258.71;131557;1254;107607;-73
2023/02/09 10:13:03;;;;;;;47.40;24.80;;;;;;;-0.99;70.39;102248.27;131257;1248;106515;-72
2023/02/09 10:16:17;;;;;;;48.80;25.60;;;;;;;-0.94;69.97;102242.23;131328;1254;107639;-72
2023/02/09 10:19:25;;;;;;;46.90;24.60;;;;;;;-0.86;70.18;102236.32;131433;1254;107416;-72
2023/02/09 10:22:30;;;;;;;48.50;25.40;;;;;;;-0.77;70.39;102231.08;131463;1271;107306;-72
2023/02/09 10:25:49;;;;;;;46.00;24.00;;;;;;;-0.69;70.41;102226.37;131423;1261;107218;-72
2023/02/09 10:28:56;;;;;;;44.30;24.30;;;;;;;-0.62;70.10;102221.67;131265;1248;107680;-73
2023/02/09 10:32:07;;;;;;;44.00;23.70;;;;;;;-0.56;70.12;102215.25;131283;1247;107499;-73
2023/02/09 10:35:28;;;;;;;40.80;21.20;;;;;;;-0.50;70.06;102211.63;131444;1247;107499;-73
2023/02/09 10:38:39;;;;;;;42.50;22.30;;;;;;;-0.42;70.02;102204.80;131288;1254;107375;-72
2023/02/09 10:41:48;;;;;;;41.00;21.80;;;;;;;-0.35;69.96;102195.20;131198;1253;105883;-72
2023/02/09 10:44:57;;;;;;;41.60;22.50;;;;;;;-0.28;69.87;102193.83;131325;1262;107513;-72
2023/02/09 10:48:14;;;;;;;41.40;22.50;;;;;;;-0.23;69.49;102186.01;131474;1248;107497;-72
2023/02/09 10:51:28;;;;;;;42.90;23.10;;;;;;;-0.17;69.56;102185.70;131425;1254;107506;-73
2023/02/09 10:54:33;;;;;;;41.30;22.00;;;;;;;-0.12;69.26;102175.42;131442;1254;107364;-72
2023/02/09 10:57:40;;;;;;;44.90;23.90;;;;;;;-0.07;69.20;102166.74;131244;1253;107358;-71
2023/02/09 11:00:52;;;;;;;42.90;22.50;;;;;;;-0.04;68.73;102158.25;131201;1248;107568;-73
2023/02/09 11:04:01;;;;;;;;;;;;;;;-0.00;68.88;102152.94;131263;1254;107343;-73
2023/02/09 11:07:12;;;;;;;39.80;21.30;;;;;;;0.05;68.69;102153.66;131310;1253;107787;-73
2023/02/09 11:10:19;;;;;;;149.40;50.90;;;;;;;0.08;68.65;102146.41;131376;1253;105817;-74
2023/02/09 11:13:26;;;;;;;203.60;63.60;;;;;;;0.12;68.53;102142.64;131309;1248;107354;-73
2023/02/09 11:16:55;;;;;;;375.80;115.50;;;;;;;0.15;68.66;102141.32;131332;1254;107396;-73
2023/02/09 11:20:17;;;;;;;108.80;41.00;;;;;;;0.22;68.48;102134.84;131282;1247;173790;-74
2023/02/09 11:23:38;;;;;;;283.20;102.70;;;;;;;0.28;68.42;102127.00;131297;1248;106439;-74
2023/02/09 11:26:50;;;;;;;128.40;48.00;;;;;;;0.34;68.66;102127.16;131266;1255;106444;-73
2023/02/09 11:30:07;;;;;;;69.90;31.30;;;;;;;0.41;68.07;102128.56;131322;1248;107439;-72
2023/02/09 11:33:21;;;;;;;285.30;144.00;;;;;;;0.46;68.51;102121.26;131409;1248;107512;-73
2023/02/09 11:36:45;;;;;;;77.70;34.50;;;;;;;0.51;68.04;102118.83;131395;1254;107392;-71
2023/02/09 11:39:57;;;;;;;88.90;49.10;;;;;;;0.57;68.39;102113.75;131262;1253;107530;-72
2023/02/09 11:43:15;;;;;;;58.80;30.10;;;;;;;0.63;68.34;102112.04;131183;1252;107384;-74
2023/02/09 11:46:24;;;;;;;46.90;25.60;;;;;;;0.68;68.36;102112.21;131231;1248;107555;-72
2023/02/09 11:49:34;;;;;;;43.00;23.50;;;;;;;0.74;68.45;102107.16;131487;1253;108732;-72
2023/02/09 11:52:44;;;;;;;44.40;24.10;;;;;;;0.79;68.31;102110.34;131221;1261;107282;-73
2023/02/09 11:55:55;;;;;;;74.40;38.30;;;;;;;0.85;68.04;102104.55;131452;1254;107515;-74
2023/02/09 11:59:05;;;;;;;268.70;89.00;;;;;;;0.89;68.17;102107.94;131216;1248;107500;-72
2023/02/09 12:02:27;;;;;;;185.50;60.20;;;;;;;0.94;67.60;102110.08;131330;1253;107524;-72
2023/02/09 12:05:33;;;;;;;122.10;43.70;;;;;;;0.98;67.92;102101.38;131405;1252;108658;-73
2023/02/09 12:08:50;;;;;;;196.60;61.70;;;;;;;1.02;67.37;102094.95;131216;1247;107475;-74
2023/02/09 12:12:06;;;;;;;262.50;77.10;;;;;;;1.04;67.35;102089.83;131190;1248;107473;-72
2023/02/09 12:15:17;;;;;;;212.40;64.20;;;;;;;1.08;67.91;102089.33;131240;1253;107468;-73
2023/02/09 12:18:26;;;;;;;134.20;47.80;;;;;;;1.12;67.71;102086.73;131409;1257;108744;-72
2023/02/09 12:21:37;;;;;;;66.40;29.50;;;;;;;1.18;67.84;102083.95;131336;1261;107452;-72
2023/02/09 12:25:02;;;;;;;73.90;34.30;;;;;;;1.22;67.75;102083.13;131266;1248;108557;-72
2023/02/09 12:28:42;;;;;;;61.90;30.50;;;;;;;1.26;67.78;102076.34;131360;1271;107504;-73
2023/02/09 12:32:24;;;;;;;81.60;35.70;;;;;;;1.29;67.66;102070.61;131290;1254;107559;-73
2023/02/09 12:35:39;;;;;;;71.00;32.40;;;;;;;1.32;67.32;102068.77;131267;1254;107375;-71
2023/02/09 12:39:00;;;;;;;50.10;25.00;;;;;;;1.31;67.20;102062.14;131318;1253;107360;-71
2023/02/09 12:42:27;;;;;;;59.90;27.70;;;;;;;1.30;67.00;102060.76;131232;1253;107507;-73
2023/02/09 12:45:36;;;;;;;51.20;27.20;;;;;;;1.31;67.05;102061.60;131449;1248;106703;-71
2023/02/09 12:48:50;;;;;;;62.50;35.20;;;;;;;1.33;67.25;102055.42;131478;1253;107478;-71
2023/02/09 12:52:16;;;;;;;55.00;28.00;;;;;;;1.35;67.24;102042.21;131444;1253;108687;-72
2023/02/09 12:55:24;;;;;;;47.10;25.70;;;;;;;1.37;66.87;102032.52;131273;1253;107189;-73
2023/02/09 12:58:38;;;;;;;48.10;28.00;;;;;;;1.37;66.80;102026.72;131600;1249;107524;-72
2023/02/09 13:02:09;;;;;;;50.10;27.90;;;;;;;1.38;66.84;102028.41;131450;1256;107268;-70
2023/02/09 13:05:17;;;;;;;43.70;23.70;;;;;;;1.38;66.84;102020.87;131223;1255;108551;-73
2023/02/09 13:08:31;;;;;;;43.70;23.20;;;;;;;1.38;66.88;102027.35;131291;1271;108722;-71
2023/02/09 13:11:48;;;;;;;43.30;23.00;;;;;;;1.41;66.82;102029.58;131255;1253;107463;-73
2023/02/09 13:14:54;;;;;;;42.10;24.00;;;;;;;1.41;66.13;102032.04;131280;1254;107895;-72
2023/02/09 13:18:20;;;;;;;44.90;25.70;;;;;;;1.40;66.57;102023.48;131197;1254;107444;-72
2023/02/09 13:21:40;;;;;;;61.80;30.20;;;;;;;1.38;66.23;102021.40;131218;1253;107354;-76
2023/02/09 13:24:53;;;;;;;46.80;24.40;;;;;;;1.37;66.34;102018.30;131040;1251;107309;-73
2023/02/09 13:28:12;;;;;;;43.20;22.70;;;;;;;1.37;66.39;102008.48;131216;1254;107465;-73
2023/02/09 13:31:36;;;;;;;56.10;29.00;;;;;;;1.35;66.06;102002.91;131194;1251;107584;-72
2023/02/09 13:34:48;;;;;;;65.90;30.90;;;;;;;1.34;65.79;101996.48;131135;1254;107583;-72
2023/02/09 13:37:57;;;;;;;48.30;25.70;;;;;;;1.32;65.90;101993.75;131147;1250;107387;-72
2023/02/09 13:41:05;;;;;;;62.50;29.00;;;;;;;1.30;65.79;101985.20;131216;1266;107508;-71
2023/02/09 13:44:28;;;;;;;50.10;25.50;;;;;;;1.29;66.18;101984.02;131197;1254;107372;-71
2023/02/09 13:47:34;;;;;;;47.90;25.40;;;;;;;1.27;66.13;101984.61;131165;1256;107381;-70
2023/02/09 13:50:59;;;;;;;45.20;24.10;;;;;;;1.26;66.09;101981.16;131260;1260;107084;-69
2023/02/09 13:54:20;;;;;;;60.40;28.90;;;;;;;1.24;65.85;101982.09;130998;1253;107282;-71
2023/02/09 13:57:34;;;;;;;45.60;24.00;;;;;;;1.21;65.76;101973.77;131079;1254;108593;-72
2023/02/09 14:00:43;;;;;;;42.80;23.10;;;;;;;1.19;65.87;101970.16;131044;1251;107619;-72
2023/02/09 14:03:52;;;;;;;57.90;27.20;;;;;;;1.17;65.95;101960.73;131350;1253;106524;-71
2023/02/09 14:07:03;;;;;;;76.10;34.30;;;;;;;1.16;65.88;101963.58;131166;1252;107385;-72
2023/02/09 14:10:16;;;;;;;46.10;24.00;;;;;;;1.13;65.49;101961.73;131367;1263;107007;-73
2023/02/09 14:13:26;;;;;;;56.50;28.30;;;;;;;1.11;65.77;101952.87;131119;1254;107379;-71